createdAt,value
2023-03-19T00:02:21.552Z,13.80
2023-03-19T00:05:23.747Z,13.80
2023-03-19T00:08:26.134Z,13.80
2023-03-19T00:11:28.262Z,13.80
2023-03-19T00:14:30.481Z,13.80
2023-03-19T00:17:32.604Z,13.80
2023-03-19T00:20:34.997Z,13.80
2023-03-19T00:23:37.130Z,13.80
2023-03-19T00:26:39.216Z,13.80
2023-03-19T00:29:41.531Z,13.70
2023-03-19T00:32:43.677Z,13.70
2023-03-19T00:35:46.418Z,13.70
2023-03-19T00:38:48.537Z,13.70
2023-03-19T00:41:50.843Z,13.70
2023-03-19T00:44:53.090Z,13.60
2023-03-19T00:47:55.146Z,13.60
2023-03-19T00:51:04.564Z,13.60
2023-03-19T00:54:06.782Z,13.60
2023-03-19T00:57:09.417Z,13.60
2023-03-19T01:00:12.098Z,13.60
2023-03-19T01:03:14.892Z,13.50
2023-03-19T01:06:17.005Z,13.50
2023-03-19T01:09:19.324Z,13.50
2023-03-19T01:12:21.535Z,13.50
2023-03-19T01:15:23.569Z,13.50
2023-03-19T01:18:25.631Z,13.50
2023-03-19T01:21:31.009Z,13.50
2023-03-19T01:24:33.202Z,13.50
2023-03-19T01:27:35.990Z,13.50
2023-03-19T01:30:38.318Z,13.40
2023-03-19T01:33:41.546Z,13.40
2023-03-19T01:36:43.825Z,13.50
2023-03-19T01:39:46.116Z,13.40
2023-03-19T01:42:52.910Z,13.40
2023-03-19T01:46:04.313Z,13.40
2023-03-19T01:49:09.316Z,13.40
2023-03-19T01:52:12.488Z,13.40
2023-03-19T01:55:14.554Z,13.40
2023-03-19T01:58:16.977Z,13.30
2023-03-19T02:01:20.860Z,13.40
2023-03-19T02:04:24.629Z,13.30
2023-03-19T02:07:27.699Z,13.30
2023-03-19T02:10:30.259Z,13.30
2023-03-19T02:13:32.440Z,13.30
2023-03-19T02:16:34.561Z,13.30
2023-03-19T02:19:48.593Z,13.30
2023-03-19T02:23:28.397Z,13.30
2023-03-19T02:26:31.880Z,13.40
2023-03-19T02:29:34.055Z,13.40
2023-03-19T02:32:36.846Z,13.30
2023-03-19T02:35:39.185Z,13.40
2023-03-19T02:38:44.968Z,13.30
2023-03-19T02:41:49.191Z,13.40
2023-03-19T02:44:51.387Z,13.30
2023-03-19T02:47:53.458Z,13.30
2023-03-19T02:50:57.156Z,13.30
2023-03-19T02:54:01.040Z,13.30
2023-03-19T02:57:03.248Z,13.30
2023-03-19T03:00:06.870Z,13.30
2023-03-19T03:03:09.915Z,13.20
2023-03-19T03:06:12.424Z,13.20
2023-03-19T03:09:14.999Z,13.10
2023-03-19T03:12:17.069Z,13.10
2023-03-19T03:15:19.135Z,13.10
2023-03-19T03:18:21.212Z,13.10
2023-03-19T03:21:23.391Z,13.10
2023-03-19T03:24:25.637Z,13.00
2023-03-19T03:27:28.072Z,13.00
2023-03-19T03:30:30.122Z,13.00
2023-03-19T03:33:33.105Z,13.00
2023-03-19T03:36:35.207Z,13.00
2023-03-19T03:39:37.841Z,13.00
2023-03-19T03:42:41.773Z,13.00
2023-03-19T03:45:45.297Z,13.00
2023-03-19T03:48:49.472Z,13.00
2023-03-19T03:51:51.683Z,13.00
2023-03-19T03:54:53.728Z,12.90
2023-03-19T03:57:55.900Z,12.90
2023-03-19T04:00:58.072Z,12.90
2023-03-19T04:04:00.452Z,12.90
2023-03-19T04:07:02.530Z,12.90
2023-03-19T04:10:05.963Z,12.90
2023-03-19T04:13:09.004Z,12.90
2023-03-19T04:16:11.382Z,12.90
2023-03-19T04:19:13.362Z,12.90
2023-03-19T04:22:16.112Z,12.80
2023-03-19T04:25:19.026Z,12.80
2023-03-19T04:28:21.211Z,12.80
2023-03-19T04:31:23.671Z,12.70
2023-03-19T04:34:25.832Z,12.70
2023-03-19T04:37:27.946Z,12.70
2023-03-19T04:40:30.062Z,12.80
2023-03-19T04:43:32.425Z,12.80
2023-03-19T04:46:34.446Z,12.80
2023-03-19T04:49:37.001Z,12.70
2023-03-19T04:52:39.504Z,12.70
2023-03-19T04:55:41.770Z,12.80
2023-03-19T04:58:44.176Z,12.80
2023-03-19T05:01:46.553Z,12.70
2023-03-19T05:04:48.714Z,12.70
2023-03-19T05:07:50.969Z,12.70
2023-03-19T05:10:53.402Z,12.70
2023-03-19T05:13:55.426Z,12.70
2023-03-19T05:16:57.440Z,12.70
2023-03-19T05:19:59.656Z,12.70
2023-03-19T05:23:01.958Z,12.60
2023-03-19T05:26:04.319Z,12.60
2023-03-19T05:29:07.971Z,12.70
2023-03-19T05:32:10.536Z,12.60
2023-03-19T05:35:13.406Z,12.60
2023-03-19T05:38:15.714Z,12.60
2023-03-19T05:41:18.106Z,12.60
2023-03-19T05:44:21.292Z,12.60
2023-03-19T05:47:23.572Z,12.60
2023-03-19T05:50:25.672Z,12.60
2023-03-19T05:53:27.709Z,12.60
2023-03-19T05:56:29.937Z,12.60
2023-03-19T05:59:32.139Z,12.60
2023-03-19T06:02:35.561Z,12.60
2023-03-19T06:05:37.876Z,12.50
2023-03-19T06:08:39.964Z,12.50
2023-03-19T06:11:43.112Z,12.50
2023-03-19T06:14:47.327Z,12.50
2023-03-19T06:17:49.364Z,12.50
2023-03-19T06:20:51.512Z,12.50
2023-03-19T06:23:53.588Z,12.40
2023-03-19T06:26:55.610Z,12.50
2023-03-19T06:29:57.779Z,12.40
2023-03-19T06:32:59.942Z,12.50
2023-03-19T06:36:02.047Z,12.50
2023-03-19T06:39:04.396Z,12.50
2023-03-19T06:42:07.608Z,12.50
2023-03-19T06:45:10.489Z,12.50
2023-03-19T06:48:12.608Z,12.50
2023-03-19T06:51:14.709Z,12.60
2023-03-19T06:54:16.958Z,12.60
2023-03-19T06:57:19.010Z,12.60
2023-03-19T07:00:21.344Z,12.70
2023-03-19T07:03:24.789Z,13.00
2023-03-19T07:06:26.904Z,13.60
2023-03-19T07:09:29.103Z,14.30
2023-03-19T07:12:31.215Z,15.10
2023-03-19T07:15:33.724Z,15.90
2023-03-19T07:18:36.111Z,16.60
2023-03-19T07:21:38.147Z,17.40
2023-03-19T07:24:40.428Z,17.80
2023-03-19T07:27:42.618Z,18.40
2023-03-19T07:30:44.939Z,18.90
2023-03-19T07:33:47.856Z,19.60
2023-03-19T07:36:51.345Z,19.80
2023-03-19T07:39:53.422Z,20.10
2023-03-19T07:42:55.921Z,20.60
2023-03-19T07:45:59.044Z,21.10
2023-03-19T07:49:01.684Z,21.20
2023-03-19T07:52:03.870Z,22.20
2023-03-19T07:55:06.985Z,22.90
2023-03-19T07:58:09.053Z,23.60
2023-03-19T08:01:11.353Z,24.60
2023-03-19T08:04:13.506Z,25.10
2023-03-19T08:07:16.109Z,25.10
2023-03-19T08:10:19.408Z,25.80
2023-03-19T08:13:22.635Z,26.00
2023-03-19T08:16:24.832Z,26.30
2023-03-19T08:19:27.274Z,26.70
2023-03-19T08:22:29.371Z,26.70
2023-03-19T08:25:32.792Z,26.80
2023-03-19T08:28:38.224Z,27.00
2023-03-19T08:31:40.268Z,27.40
2023-03-19T08:34:42.385Z,27.00
2023-03-19T08:37:44.681Z,26.50
2023-03-19T08:40:46.839Z,26.90
2023-03-19T08:43:48.916Z,26.50
2023-03-19T08:46:51.092Z,26.80
2023-03-19T08:49:54.063Z,26.60
2023-03-19T08:52:57.755Z,26.30
2023-03-19T08:56:05.135Z,26.30
2023-03-19T08:59:07.997Z,26.30
2023-03-19T09:02:12.918Z,26.20
2023-03-19T09:05:15.064Z,26.70
2023-03-19T09:08:17.213Z,26.40
2023-03-19T09:11:19.568Z,26.40
2023-03-19T09:14:23.163Z,27.30
2023-03-19T09:17:25.270Z,27.50
2023-03-19T09:20:27.402Z,27.50
2023-03-19T09:23:29.779Z,28.10
2023-03-19T09:26:32.010Z,28.20
2023-03-19T09:29:34.413Z,27.40
2023-03-19T09:32:37.093Z,27.20
2023-03-19T09:35:39.916Z,26.90
2023-03-19T09:38:42.256Z,27.60
2023-03-19T09:42:04.749Z,28.30
2023-03-19T09:45:14.654Z,28.80
2023-03-19T09:48:28.982Z,29.30
2023-03-19T09:51:41.644Z,29.00
2023-03-19T09:54:52.675Z,28.70
2023-03-19T09:57:57.060Z,28.80
2023-03-19T10:01:01.224Z,28.80
2023-03-19T10:04:09.440Z,28.10
2023-03-19T10:07:40.859Z,28.80
2023-03-19T10:11:09.497Z,29.80
2023-03-19T10:14:53.124Z,30.50
2023-03-19T10:17:56.040Z,30.80
2023-03-19T10:21:35.641Z,30.40
2023-03-19T10:24:44.972Z,30.20
2023-03-19T10:27:50.839Z,30.60
2023-03-19T10:31:03.881Z,30.70
2023-03-19T10:34:12.039Z,31.10
2023-03-19T10:37:17.072Z,30.90
2023-03-19T10:40:27.057Z,30.90
2023-03-19T10:43:31.742Z,31.20
2023-03-19T10:46:40.625Z,29.70
2023-03-19T10:49:43.200Z,29.60
2023-03-19T10:52:49.814Z,30.00
2023-03-19T10:55:55.902Z,29.70
2023-03-19T10:59:01.417Z,29.60
2023-03-19T11:02:19.916Z,29.10
2023-03-19T11:05:22.102Z,28.70
2023-03-19T11:08:35.292Z,29.00
2023-03-19T11:11:53.472Z,29.60
2023-03-19T11:14:58.248Z,30.10
2023-03-19T11:18:06.745Z,29.60
2023-03-19T11:21:29.178Z,29.30
2023-03-19T11:24:37.692Z,29.70
2023-03-19T11:27:42.213Z,29.40
2023-03-19T11:30:44.161Z,29.30
2023-03-19T11:33:52.237Z,29.20
2023-03-19T11:37:15.866Z,29.00
2023-03-19T11:40:20.664Z,29.80
2023-03-19T11:43:48.972Z,30.10
2023-03-19T11:47:24.595Z,29.80
2023-03-19T11:50:31.533Z,29.20
2023-03-19T11:53:54.428Z,27.90
2023-03-19T11:57:16.454Z,26.60
2023-03-19T12:00:28.628Z,25.60
2023-03-19T12:03:57.248Z,24.50
2023-03-19T12:07:15.842Z,23.90
2023-03-19T12:10:35.181Z,23.40
2023-03-19T12:13:58.010Z,23.10
2023-03-19T12:17:21.599Z,23.00
2023-03-19T12:20:30.150Z,22.40
2023-03-19T12:23:36.101Z,22.30
2023-03-19T12:27:22.220Z,22.30
2023-03-19T12:31:07.485Z,22.00
2023-03-19T12:34:09.758Z,21.80
2023-03-19T12:37:41.804Z,21.60
2023-03-19T12:41:03.893Z,21.60
2023-03-19T12:44:10.347Z,21.30
2023-03-19T12:47:39.302Z,21.00
2023-03-19T12:50:46.995Z,20.80
2023-03-19T12:54:23.548Z,20.60
2023-03-19T12:57:31.834Z,20.30
2023-03-19T13:00:55.864Z,20.40
2023-03-19T13:04:14.348Z,20.40
2023-03-19T13:07:46.035Z,20.10
2023-03-19T13:10:48.355Z,20.20
2023-03-19T13:14:08.930Z,20.20
2023-03-19T13:17:21.485Z,20.30
2023-03-19T13:20:26.724Z,20.20
2023-03-19T13:23:36.129Z,20.20
2023-03-19T13:26:39.185Z,20.30
2023-03-19T13:30:00.881Z,20.50
2023-03-19T13:33:05.776Z,20.60
2023-03-19T13:36:14.656Z,20.60
2023-03-19T13:39:20.930Z,20.60
2023-03-19T13:42:43.945Z,20.60
2023-03-19T13:45:51.817Z,20.50
2023-03-19T13:48:54.637Z,20.50
2023-03-19T13:52:04.696Z,20.50
2023-03-19T13:55:44.744Z,20.50
2023-03-19T13:58:52.980Z,20.60
2023-03-19T14:01:56.655Z,20.70
2023-03-19T14:05:07.232Z,20.70
2023-03-19T14:08:33.593Z,20.70
2023-03-19T14:11:37.355Z,20.90
2023-03-19T14:14:46.039Z,20.70
2023-03-19T14:17:51.065Z,20.80
2023-03-19T14:21:08.898Z,20.80
2023-03-19T14:24:58.773Z,20.90
2023-03-19T14:28:09.112Z,21.00
2023-03-19T14:31:24.782Z,21.00
2023-03-19T14:34:36.426Z,20.90
2023-03-19T14:37:38.447Z,21.00
2023-03-19T14:40:51.935Z,21.00
2023-03-19T14:44:27.430Z,20.80
2023-03-19T14:47:48.269Z,20.80
2023-03-19T14:51:34.479Z,21.00
2023-03-19T14:54:50.934Z,21.00
2023-03-19T14:57:57.015Z,21.00
2023-03-19T15:00:59.143Z,21.00
2023-03-19T15:04:08.906Z,21.00
2023-03-19T15:07:20.758Z,21.10
2023-03-19T15:10:27.328Z,21.20
2023-03-19T15:13:42.956Z,21.30
2023-03-19T15:17:14.568Z,21.30
2023-03-19T15:20:23.814Z,21.30
2023-03-19T15:23:28.831Z,21.30
2023-03-19T15:26:38.120Z,21.40
2023-03-19T15:29:40.326Z,21.40
2023-03-19T15:32:54.413Z,21.40
2023-03-19T15:36:05.598Z,21.40
2023-03-19T15:39:11.099Z,21.40
2023-03-19T15:42:17.486Z,21.40
2023-03-19T15:45:24.505Z,21.30
2023-03-19T15:48:27.533Z,21.30
2023-03-19T15:51:30.564Z,21.30
2023-03-19T15:54:33.544Z,21.20
2023-03-19T15:57:38.324Z,21.20
2023-03-19T16:00:42.036Z,21.20
2023-03-19T16:03:56.044Z,21.20
2023-03-19T16:06:59.531Z,21.30
2023-03-19T16:10:28.900Z,21.40
2023-03-19T16:13:38.579Z,21.50
2023-03-19T16:16:42.191Z,21.50
2023-03-19T16:20:04.700Z,21.50
2023-03-19T16:23:10.514Z,21.60
2023-03-19T16:26:43.335Z,21.60
2023-03-19T16:29:48.082Z,21.60
2023-03-19T16:33:07.153Z,21.50
2023-03-19T16:36:13.398Z,21.40
2023-03-19T16:39:36.579Z,21.30
2023-03-19T16:42:49.711Z,21.40
2023-03-19T16:46:06.274Z,21.40
2023-03-19T16:49:08.412Z,21.40
2023-03-19T16:52:16.694Z,21.30
2023-03-19T16:55:22.229Z,21.20
2023-03-19T16:58:44.394Z,21.20
2023-03-19T17:01:46.498Z,21.10
2023-03-19T17:04:48.598Z,21.10
2023-03-19T17:07:50.841Z,21.00
2023-03-19T17:10:53.824Z,20.90
2023-03-19T17:13:58.898Z,20.80
2023-03-19T17:17:01.270Z,20.60
2023-03-19T17:20:03.472Z,20.40
2023-03-19T17:23:12.907Z,20.20
2023-03-19T17:26:22.282Z,20.10
2023-03-19T17:29:25.613Z,20.10
2023-03-19T17:32:28.761Z,20.10
2023-03-19T17:35:30.974Z,20.00
2023-03-19T17:38:34.003Z,20.00
2023-03-19T17:41:36.201Z,19.90
2023-03-19T17:44:38.354Z,19.90
2023-03-19T17:47:41.405Z,19.80
2023-03-19T17:50:44.421Z,19.70
2023-03-19T17:53:51.546Z,19.60
2023-03-19T17:56:54.408Z,19.50
2023-03-19T17:59:56.500Z,19.40
2023-03-19T18:02:58.727Z,19.30
2023-03-19T18:06:05.693Z,19.20
2023-03-19T18:09:10.248Z,19.10
2023-03-19T18:12:12.365Z,19.10
2023-03-19T18:15:15.781Z,18.90
2023-03-19T18:18:21.483Z,18.80
2023-03-19T18:21:23.821Z,18.80
2023-03-19T18:24:26.034Z,18.60
2023-03-19T18:27:28.147Z,18.50
2023-03-19T18:30:33.476Z,18.40
2023-03-19T18:33:35.796Z,18.40
2023-03-19T18:36:39.212Z,18.30
2023-03-19T18:39:41.261Z,18.10
2023-03-19T18:42:43.779Z,18.10
2023-03-19T18:45:49.492Z,18.00
2023-03-19T18:48:53.051Z,17.90
2023-03-19T18:52:02.488Z,17.80
2023-03-19T18:55:05.736Z,17.70
2023-03-19T18:58:14.006Z,17.50
2023-03-19T19:01:17.172Z,17.50
2023-03-19T19:04:19.335Z,17.40
2023-03-19T19:07:21.436Z,17.20
2023-03-19T19:10:29.634Z,17.20
2023-03-19T19:13:53.367Z,17.10
2023-03-19T19:16:57.822Z,17.10
2023-03-19T19:20:01.606Z,17.10
2023-03-19T19:23:03.687Z,17.00
2023-03-19T19:26:06.298Z,16.90
2023-03-19T19:29:10.998Z,16.90
2023-03-19T19:32:21.550Z,16.90
2023-03-19T19:35:26.648Z,16.80
2023-03-19T19:38:28.948Z,16.80
2023-03-19T19:41:34.090Z,16.80
2023-03-19T19:44:36.179Z,16.80
2023-03-19T19:47:38.279Z,16.70
2023-03-19T19:50:40.650Z,16.70
2023-03-19T19:53:42.820Z,16.60
2023-03-19T19:56:44.893Z,16.70
2023-03-19T19:59:47.286Z,16.60
2023-03-19T20:02:50.460Z,16.60
2023-03-19T20:05:53.112Z,16.60
2023-03-19T20:08:55.295Z,16.60
2023-03-19T20:11:57.393Z,16.60
2023-03-19T20:15:00.025Z,16.50
2023-03-19T20:18:04.178Z,16.50
2023-03-19T20:21:07.457Z,16.50
2023-03-19T20:24:09.644Z,16.50
2023-03-19T20:27:25.788Z,16.50
2023-03-19T20:30:39.409Z,16.50
2023-03-19T20:33:41.633Z,16.40
2023-03-19T20:36:44.811Z,16.40
2023-03-19T20:39:46.848Z,16.40
2023-03-19T20:42:51.661Z,16.40
2023-03-19T20:45:54.278Z,16.40
2023-03-19T20:48:56.509Z,16.40
2023-03-19T20:51:58.500Z,16.30
2023-03-19T20:55:01.034Z,16.30
2023-03-19T20:58:12.367Z,16.20
2023-03-19T21:01:15.710Z,16.20
2023-03-19T21:04:21.257Z,16.10
2023-03-19T21:07:36.421Z,16.10
2023-03-19T21:10:40.015Z,16.10
2023-03-19T21:13:42.582Z,16.10
2023-03-19T21:16:44.681Z,16.10
2023-03-19T21:19:46.752Z,16.10
2023-03-19T21:22:53.515Z,16.00
2023-03-19T21:25:56.002Z,16.00
2023-03-19T21:29:05.610Z,16.00
2023-03-19T21:32:11.980Z,15.90
2023-03-19T21:35:31.850Z,15.90
2023-03-19T21:38:34.432Z,15.80
2023-03-19T21:41:37.367Z,15.80
2023-03-19T21:44:41.064Z,15.80
2023-03-19T21:47:43.143Z,15.80
2023-03-19T21:50:45.467Z,15.80
2023-03-19T21:53:48.799Z,15.70
2023-03-19T21:56:51.225Z,15.70
2023-03-19T21:59:53.343Z,15.70
2023-03-19T22:02:55.884Z,15.70
2023-03-19T22:05:57.969Z,15.60
2023-03-19T22:09:00.371Z,15.60
2023-03-19T22:12:02.458Z,15.60
2023-03-19T22:15:06.760Z,15.60
2023-03-19T22:18:16.952Z,15.60
2023-03-19T22:21:24.068Z,15.60
2023-03-19T22:24:26.129Z,15.60
2023-03-19T22:27:28.219Z,15.60
2023-03-19T22:30:36.899Z,15.50
2023-03-19T22:33:38.953Z,15.50
2023-03-19T22:36:41.317Z,15.50
2023-03-19T22:39:44.295Z,15.50
2023-03-19T22:42:48.572Z,15.50
2023-03-19T22:45:55.578Z,15.40
2023-03-19T22:48:57.941Z,15.40
2023-03-19T22:52:00.813Z,15.30
2023-03-19T22:55:02.982Z,15.30
2023-03-19T22:58:05.370Z,15.30
2023-03-19T23:01:35.064Z,15.30
2023-03-19T23:04:37.720Z,15.20
2023-03-19T23:07:40.121Z,15.20
2023-03-19T23:10:43.486Z,15.20
2023-03-19T23:13:46.071Z,15.10
2023-03-19T23:16:49.234Z,15.00
2023-03-19T23:19:52.103Z,15.10
2023-03-19T23:22:55.745Z,15.00
2023-03-19T23:25:58.018Z,15.00
2023-03-19T23:29:06.541Z,15.00
2023-03-19T23:32:11.491Z,15.00
2023-03-19T23:35:23.660Z,14.90
2023-03-19T23:38:26.315Z,14.90
2023-03-19T23:41:30.073Z,14.90
2023-03-19T23:44:32.678Z,14.90
2023-03-19T23:47:35.623Z,14.90
2023-03-19T23:50:37.907Z,14.90
2023-03-19T23:53:42.201Z,14.80
2023-03-19T23:56:44.212Z,14.80
2023-03-19T23:59:49.873Z,14.80
